Sunday, July 22, 2018, 12:45 AM EDT
Back to Local

KDAW, Skyhaven Airport

Location: Rochester, NH, United States Lat: 43.283
Local Time: 12:45 AM EDT ( 4:45 GMT) Lon: -70.917
Time Zone: US/Eastern Elev: 321 ft

Show me the last for .
Show Decoded

2018-07-22 00:30 METAR KDAW 220430Z AUTO 33003KT 9SM BKN016 14/14 A3014 RMK AO2 T01440144 =
2018-07-22 00:05 METAR KDAW 220405Z AUTO 32003KT 10SM SCT014 SCT050 13/13 A3015 RMK AO2 T01330128
                 =
2018-07-21 23:51 METAR KDAW 220351Z AUTO 00000KT 10SM BKN013 BKN050 15/15 A3015 RMK AO2 SLP204
                 T01500150 =
2018-07-21 23:44 METAR KDAW 220344Z AUTO 00000KT 10SM BKN013 15/14 A3015 RMK AO2 T01500144 =
2018-07-21 22:51 METAR KDAW 220251Z AUTO 00000KT 10SM CLR 16/15 A3016 RMK AO2 SLP207 T01560150
                 58001 =
2018-07-21 21:51 METAR KDAW 220151Z AUTO 00000KT 10SM CLR 16/14 A3016 RMK AO2 SLP209 T01560144 =
2018-07-21 20:51 METAR KDAW 220051Z AUTO 00000KT 10SM CLR 17/14 A3016 RMK AO2 SLP210 T01720144 =
2018-07-21 19:51 METAR KDAW 212351Z AUTO 14004KT 10SM CLR 19/15 A3016 RMK AO2 SLP209 T01940150
                 10256 20189 53007 =
2018-07-21 18:51 METAR KDAW 212251Z AUTO 11005KT 10SM CLR 21/12 A3014 RMK AO2 SLP204 T02060122 =
2018-07-21 17:51 METAR KDAW 212151Z AUTO 12008KT 10SM CLR 22/12 A3013 RMK AO2 SLP200 T02170122 =
2018-07-21 16:51 METAR KDAW 212051Z AUTO 13007KT 10SM CLR 24/13 A3013 RMK AO2 SLP201 T02390133
                 58008 =
2018-07-21 15:51 METAR KDAW 211951Z AUTO 14007KT 10SM CLR 25/14 A3015 RMK AO2 SLP204 T02500139 =
2018-07-21 14:51 METAR KDAW 211851Z AUTO 14007KT 110V170 10SM CLR 26/14 A3015 RMK AO2 SLP207
                 T02560144 =
2018-07-21 13:51 METAR KDAW 211751Z AUTO 17007KT 10SM CLR 25/14 A3016 RMK AO2 SLP209 T02500139
                 10256 20172 58006 =
2018-07-21 12:51 METAR KDAW 211651Z AUTO 17005KT 10SM CLR 25/14 A3018 RMK AO2 SLP215 T02500139 =
2018-07-21 11:51 METAR KDAW 211551Z AUTO 16006KT 10SM FEW038 25/15 A3018 RMK AO2 SLP215 T02500150
                 =
2018-07-21 10:51 METAR KDAW 211451Z AUTO VRB03KT 10SM FEW038 24/14 A3018 RMK AO2 SLP216 T02390144
                 51001 =
2018-07-21 09:51 METAR KDAW 211351Z AUTO 00000KT 10SM CLR 22/15 A3018 RMK AO2 SLP215 T02220150 =
2018-07-21 08:51 METAR KDAW 211251Z AUTO 00000KT 10SM CLR 20/17 A3018 RMK AO2 SLP215 T02000167 =
2018-07-21 07:51 METAR KDAW 211151Z AUTO 00000KT 10SM CLR 17/16 A3018 RMK AO2 SLP214 T01720161
                 10178 20111 50005 =
2018-07-21 06:51 METAR KDAW 211051Z AUTO 33003KT 10SM SCT013 SCT026 14/14 A3018 RMK AO2 SLP215
                 T01440139 =
2018-07-21 05:51 METAR KDAW 210951Z AUTO 32005KT 10SM BKN010 OVC018 12/12 A3018 RMK AO2 SLP215
                 T01220122 =
2018-07-21 05:38 METAR KDAW 210938Z AUTO 31003KT 10SM BKN010 12/12 A3018 RMK AO2 T01170117 =
2018-07-21 04:51 METAR KDAW 210851Z AUTO 31003KT 10SM CLR 12/12 A3016 RMK AO2 SLP209 T01220122
                 58001 =
2018-07-21 03:51 METAR KDAW 210751Z AUTO 31004KT 10SM CLR 12/12 A3017 RMK AO2 SLP211 T01220122 =
2018-07-21 02:51 METAR KDAW 210651Z AUTO 31004KT 10SM CLR 13/13 A3016 RMK AO2 SLP209 T01280128 =
2018-07-21 01:51 METAR KDAW 210551Z AUTO 32003KT 10SM CLR 13/13 A3016 RMK AO2 SLP210 T01280128
                 10211 20128 56004 =
2018-07-21 00:51 METAR KDAW 210451Z AUTO 31004KT 10SM CLR 14/14 A3016 RMK AO2 SLP210 T01440139
                 402940117 =

Support USWX by starting your Amazon purchase here.